createdAt,value
2022-07-26T00:09:16.024Z,21.73
2022-07-26T00:12:32.957Z,21.67
2022-07-26T00:33:00.221Z,21.43
2022-07-26T00:36:20.740Z,21.34
2022-07-26T00:39:54.113Z,21.23
2022-07-26T00:43:19.025Z,21.22
2022-07-26T00:46:48.887Z,21.21
2022-07-26T00:50:20.830Z,21.18
2022-07-26T00:53:37.675Z,21.16
2022-07-26T01:03:57.617Z,20.88
2022-07-26T01:07:15.137Z,21.17
2022-07-26T01:13:51.754Z,20.97
2022-07-26T01:17:18.692Z,21.01
2022-07-26T01:23:59.739Z,21.01
2022-07-26T01:34:40.015Z,20.85
2022-07-26T01:55:08.659Z,20.61
2022-07-26T02:05:24.440Z,20.50
2022-07-26T02:08:39.154Z,20.42
2022-07-26T02:12:02.766Z,20.43
2022-07-26T02:18:44.069Z,20.43
2022-07-26T02:22:00.106Z,20.42
2022-07-26T02:25:43.720Z,20.39
2022-07-26T02:32:17.006Z,20.33
2022-07-26T02:45:36.573Z,20.43
2022-07-26T02:48:48.195Z,20.38
2022-07-26T02:51:57.386Z,20.32
2022-07-26T02:54:59.839Z,20.31
2022-07-26T02:58:02.019Z,20.43
2022-07-26T03:01:07.788Z,20.39
2022-07-26T03:04:11.056Z,20.38
2022-07-26T03:07:14.457Z,20.35
2022-07-26T03:10:18.741Z,20.37
2022-07-26T03:13:22.131Z,20.32
2022-07-26T03:16:29.669Z,20.30
2022-07-26T03:19:34.955Z,20.22
2022-07-26T03:22:37.746Z,20.21
2022-07-26T03:25:40.482Z,20.24
2022-07-26T03:28:44.812Z,20.24
2022-07-26T03:31:47.558Z,20.29
2022-07-26T03:34:58.329Z,20.27
2022-07-26T03:38:00.929Z,20.28
2022-07-26T03:41:03.503Z,20.35
2022-07-26T03:44:08.338Z,20.36
2022-07-26T03:47:11.967Z,20.52
2022-07-26T03:50:14.445Z,20.56
2022-07-26T03:53:16.597Z,20.55
2022-07-26T03:56:31.489Z,20.54
2022-07-26T03:59:40.398Z,20.53
2022-07-26T04:02:44.355Z,20.64
2022-07-26T04:05:49.240Z,20.67
2022-07-26T04:08:51.597Z,20.80
2022-07-26T04:11:53.769Z,20.94
2022-07-26T04:14:55.848Z,21.07
2022-07-26T04:17:58.039Z,21.19
2022-07-26T04:21:02.284Z,21.26
2022-07-26T04:24:08.406Z,21.42
2022-07-26T04:27:11.083Z,21.58
2022-07-26T04:30:18.081Z,21.73
2022-07-26T04:33:24.297Z,21.90
2022-07-26T04:36:27.090Z,22.03
2022-07-26T04:39:30.339Z,22.19
2022-07-26T04:42:33.853Z,22.37
2022-07-26T04:45:36.979Z,22.55
2022-07-26T04:48:40.855Z,22.70
2022-07-26T04:51:43.768Z,22.81
2022-07-26T04:54:46.431Z,22.90
2022-07-26T04:57:53.062Z,23.10
2022-07-26T05:01:09.452Z,23.13
2022-07-26T05:04:15.250Z,23.11
2022-07-26T05:07:21.908Z,23.27
2022-07-26T05:10:33.736Z,23.53
2022-07-26T05:13:36.367Z,23.65
2022-07-26T05:16:39.259Z,23.56
2022-07-26T05:19:49.208Z,23.64
2022-07-26T05:22:51.942Z,24.05
2022-07-26T05:25:54.578Z,24.26
2022-07-26T05:28:56.714Z,24.18
2022-07-26T05:32:00.337Z,24.37
2022-07-26T05:35:03.470Z,24.60
2022-07-26T05:38:05.689Z,24.89
2022-07-26T05:41:08.664Z,24.82
2022-07-26T05:44:11.100Z,25.05
2022-07-26T05:47:13.534Z,25.13
2022-07-26T05:50:15.770Z,25.45
2022-07-26T05:53:18.267Z,25.60
2022-07-26T05:56:20.854Z,25.79
2022-07-26T05:59:23.024Z,25.89
2022-07-26T06:02:25.262Z,26.18
2022-07-26T06:05:27.405Z,26.43
2022-07-26T06:08:30.393Z,26.58
2022-07-26T06:11:33.136Z,26.60
2022-07-26T06:14:35.843Z,26.80
2022-07-26T06:17:40.612Z,27.06
2022-07-26T06:20:44.728Z,27.20
2022-07-26T06:23:46.645Z,27.05
2022-07-26T06:26:56.607Z,27.07
2022-07-26T06:29:59.890Z,26.93
2022-07-26T06:33:02.344Z,27.14
2022-07-26T06:36:04.504Z,27.09
2022-07-26T06:39:07.136Z,27.29
2022-07-26T06:42:09.893Z,27.23
2022-07-26T06:45:12.691Z,27.37
2022-07-26T06:48:14.938Z,27.45
2022-07-26T06:51:18.004Z,27.21
2022-07-26T06:54:20.673Z,27.00
2022-07-26T06:57:23.455Z,27.22
2022-07-26T07:00:26.623Z,27.47
2022-07-26T07:03:28.912Z,27.59
2022-07-26T07:06:31.874Z,27.37
2022-07-26T07:09:35.394Z,26.77
2022-07-26T07:12:38.714Z,27.05
2022-07-26T07:15:41.294Z,27.20
2022-07-26T07:18:43.728Z,27.02
2022-07-26T07:21:46.767Z,27.16
2022-07-26T07:24:51.845Z,27.77
2022-07-26T07:27:58.798Z,28.40
2022-07-26T07:31:01.142Z,30.08
2022-07-26T07:34:06.717Z,31.31
2022-07-26T07:37:10.051Z,32.61
2022-07-26T07:40:16.982Z,33.50
2022-07-26T07:43:20.186Z,34.13
2022-07-26T07:46:22.984Z,34.80
2022-07-26T07:49:25.639Z,36.37
2022-07-26T07:52:28.338Z,35.46
2022-07-26T07:55:40.111Z,35.87
2022-07-26T07:58:43.543Z,34.52
2022-07-26T08:01:46.664Z,33.16
2022-07-26T08:04:50.756Z,33.02
2022-07-26T08:07:54.025Z,34.34
2022-07-26T08:11:01.032Z,34.81
2022-07-26T08:14:04.045Z,33.46
2022-07-26T08:17:06.512Z,30.80
2022-07-26T08:20:14.769Z,30.32
2022-07-26T08:23:18.400Z,29.73
2022-07-26T08:26:21.384Z,29.62
2022-07-26T08:29:38.186Z,28.74
2022-07-26T08:32:43.935Z,29.05
2022-07-26T08:35:48.073Z,29.63
2022-07-26T08:38:52.198Z,29.98
2022-07-26T08:42:00.907Z,29.98
2022-07-26T08:45:03.708Z,29.39
2022-07-26T08:48:21.462Z,28.87
2022-07-26T08:51:27.101Z,29.25
2022-07-26T08:54:29.576Z,28.90
2022-07-26T08:57:34.794Z,28.80
2022-07-26T09:00:38.148Z,28.68
2022-07-26T09:03:41.894Z,28.85
2022-07-26T09:06:54.594Z,28.84
2022-07-26T09:10:23.532Z,29.44
2022-07-26T09:13:45.890Z,29.03
2022-07-26T09:16:59.452Z,29.10
2022-07-26T09:20:16.458Z,28.45
2022-07-26T09:23:19.208Z,28.20
2022-07-26T09:26:21.992Z,28.41
2022-07-26T09:29:24.697Z,27.89
2022-07-26T09:32:28.101Z,28.18
2022-07-26T09:35:50.690Z,27.97
2022-07-26T09:38:55.999Z,27.68
2022-07-26T09:42:27.595Z,27.56
2022-07-26T09:45:33.111Z,27.08
2022-07-26T09:49:10.004Z,26.96
2022-07-26T09:52:00.803Z,26.86
2022-07-26T09:55:05.209Z,26.48
2022-07-26T09:58:07.834Z,25.68
2022-07-26T10:01:10.159Z,25.25
2022-07-26T10:04:13.612Z,24.94
2022-07-26T10:07:17.433Z,24.16
2022-07-26T10:10:31.235Z,23.42
2022-07-26T10:13:36.517Z,22.84
2022-07-26T10:16:42.477Z,22.41
2022-07-26T10:19:45.506Z,21.69
2022-07-26T10:22:50.585Z,21.02
2022-07-26T10:25:52.998Z,20.64
2022-07-26T10:28:55.097Z,20.77
2022-07-26T10:32:03.997Z,20.81
2022-07-26T10:35:25.116Z,20.77
2022-07-26T10:38:29.134Z,20.71
2022-07-26T10:41:32.198Z,20.69
2022-07-26T10:44:45.053Z,20.74
2022-07-26T10:48:06.223Z,20.78
2022-07-26T10:51:24.705Z,21.00
2022-07-26T10:54:26.610Z,21.34
2022-07-26T10:57:29.751Z,21.35
2022-07-26T11:00:33.499Z,21.40
2022-07-26T11:03:39.037Z,21.49
2022-07-26T11:06:41.466Z,21.75
2022-07-26T11:09:43.825Z,21.93
2022-07-26T11:12:46.220Z,22.19
2022-07-26T11:15:49.797Z,22.23
2022-07-26T11:18:52.534Z,22.21
2022-07-26T11:22:01.310Z,22.16
2022-07-26T11:25:07.748Z,22.34
2022-07-26T11:28:10.156Z,22.19
2022-07-26T11:31:15.429Z,22.14
2022-07-26T11:34:22.762Z,22.26
2022-07-26T11:37:27.705Z,22.15
2022-07-26T11:40:42.971Z,22.25
2022-07-26T11:43:46.955Z,22.50
2022-07-26T11:46:50.040Z,22.53
2022-07-26T11:50:12.490Z,22.52
2022-07-26T11:53:21.150Z,22.95
2022-07-26T11:56:24.459Z,22.50
2022-07-26T11:59:28.763Z,22.71
2022-07-26T12:02:33.265Z,22.67
2022-07-26T12:05:35.581Z,22.60
2022-07-26T12:08:42.309Z,22.60
2022-07-26T12:11:47.779Z,22.83
2022-07-26T12:14:59.786Z,22.89
2022-07-26T12:18:02.335Z,23.03
2022-07-26T12:21:16.302Z,23.30
2022-07-26T12:24:37.847Z,23.37
2022-07-26T12:27:52.127Z,23.39
2022-07-26T12:30:54.282Z,23.32
2022-07-26T12:34:00.443Z,23.62
2022-07-26T12:37:08.500Z,23.62
2022-07-26T12:40:14.475Z,23.83
2022-07-26T12:43:19.572Z,23.76
2022-07-26T12:46:25.333Z,23.58
2022-07-26T12:49:27.866Z,23.21
2022-07-26T12:52:32.329Z,23.33
2022-07-26T12:55:38.591Z,23.57
2022-07-26T12:58:40.871Z,23.18
2022-07-26T13:01:43.075Z,23.13
2022-07-26T13:04:46.324Z,23.21
2022-07-26T13:07:49.548Z,23.52
2022-07-26T13:11:00.220Z,23.45
2022-07-26T13:14:02.332Z,23.46
2022-07-26T13:17:05.979Z,23.49
2022-07-26T13:20:08.384Z,23.72
2022-07-26T13:23:13.943Z,23.88
2022-07-26T13:26:27.709Z,24.78
2022-07-26T13:29:30.156Z,25.30
2022-07-26T13:32:32.461Z,25.36
2022-07-26T13:35:36.459Z,24.73
2022-07-26T13:38:40.094Z,24.32
2022-07-26T13:44:54.604Z,24.19
2022-07-26T13:47:59.021Z,24.05
2022-07-26T13:51:04.738Z,24.47
2022-07-26T13:54:08.587Z,24.35
2022-07-26T13:57:11.202Z,24.61
2022-07-26T14:00:15.633Z,24.77
2022-07-26T14:03:20.047Z,25.02
2022-07-26T14:06:23.228Z,25.03
2022-07-26T14:09:26.141Z,25.24
2022-07-26T14:12:29.127Z,25.17
2022-07-26T14:15:31.012Z,24.85
2022-07-26T14:18:38.724Z,24.98
2022-07-26T14:21:47.517Z,24.95
2022-07-26T14:25:02.446Z,24.88
2022-07-26T14:28:04.590Z,25.13
2022-07-26T14:31:06.806Z,25.14
2022-07-26T14:34:09.172Z,25.55
2022-07-26T14:37:43.538Z,25.56
2022-07-26T14:40:34.126Z,25.31
2022-07-26T14:43:36.495Z,25.60
2022-07-26T14:46:38.944Z,25.55
2022-07-26T14:49:44.713Z,25.32
2022-07-26T14:52:48.038Z,25.32
2022-07-26T14:55:52.597Z,25.19
2022-07-26T14:58:56.115Z,25.49
2022-07-26T15:02:05.338Z,25.41
2022-07-26T15:05:08.661Z,25.18
2022-07-26T15:08:11.269Z,25.16
2022-07-26T15:11:14.903Z,25.09
2022-07-26T15:14:17.271Z,25.28
2022-07-26T15:17:21.807Z,25.10
2022-07-26T15:20:30.456Z,25.04
2022-07-26T15:23:32.701Z,25.31
2022-07-26T15:26:35.557Z,25.24
2022-07-26T15:29:38.070Z,25.29
2022-07-26T15:32:40.415Z,25.49
2022-07-26T15:35:44.387Z,25.49
2022-07-26T15:38:48.346Z,25.55
2022-07-26T15:41:51.140Z,25.27
2022-07-26T15:44:53.765Z,25.47
2022-07-26T15:48:14.903Z,25.45
2022-07-26T15:51:18.552Z,25.34
2022-07-26T15:54:21.053Z,25.33
2022-07-26T15:57:23.831Z,25.30
2022-07-26T16:00:26.518Z,25.33
2022-07-26T16:03:28.687Z,25.11
2022-07-26T16:06:35.144Z,25.17
2022-07-26T16:09:40.555Z,25.17
2022-07-26T16:12:43.358Z,25.03
2022-07-26T16:15:46.588Z,24.92
2022-07-26T16:18:48.871Z,24.98
2022-07-26T16:21:54.346Z,24.99
2022-07-26T16:24:58.894Z,25.10
2022-07-26T16:28:03.080Z,25.11
2022-07-26T16:31:05.872Z,25.15
2022-07-26T16:34:10.995Z,25.01
2022-07-26T16:37:13.776Z,25.07
2022-07-26T16:40:15.755Z,24.95
2022-07-26T16:43:18.186Z,24.99
2022-07-26T16:46:28.247Z,24.83
2022-07-26T16:49:30.831Z,24.85
2022-07-26T16:52:33.205Z,24.96
2022-07-26T16:55:35.308Z,24.87
2022-07-26T16:58:39.825Z,24.91
2022-07-26T17:01:42.473Z,24.95
2022-07-26T17:04:44.457Z,24.92
2022-07-26T17:07:46.682Z,24.93
2022-07-26T17:10:50.844Z,25.02
2022-07-26T17:13:53.879Z,24.92
2022-07-26T17:16:58.317Z,24.83
2022-07-26T17:20:00.836Z,24.85
2022-07-26T17:23:03.195Z,24.73
2022-07-26T17:26:07.014Z,24.80
2022-07-26T17:29:11.311Z,24.78
2022-07-26T17:32:13.491Z,24.64
2022-07-26T17:35:15.543Z,24.65
2022-07-26T17:38:17.912Z,24.57
2022-07-26T17:41:20.415Z,24.34
2022-07-26T17:44:25.081Z,24.26
2022-07-26T17:47:29.404Z,24.13
2022-07-26T17:50:37.730Z,24.03
2022-07-26T17:53:43.592Z,23.97
2022-07-26T17:56:55.724Z,23.83
2022-07-26T18:00:00.792Z,23.73
2022-07-26T18:03:07.767Z,23.53
2022-07-26T18:06:15.195Z,23.51
2022-07-26T18:09:17.502Z,23.47
2022-07-26T18:12:19.809Z,23.42
2022-07-26T18:15:22.345Z,23.43
2022-07-26T18:18:24.988Z,23.32
2022-07-26T18:21:27.455Z,23.33
2022-07-26T18:24:30.138Z,23.33
2022-07-26T18:27:33.695Z,23.16
2022-07-26T18:30:36.811Z,23.07
2022-07-26T18:33:39.213Z,23.03
2022-07-26T18:36:41.233Z,22.93
2022-07-26T18:39:43.405Z,22.96
2022-07-26T18:42:47.225Z,22.92
2022-07-26T18:45:49.642Z,22.92
2022-07-26T18:48:52.658Z,22.74
2022-07-26T18:52:08.312Z,22.66
2022-07-26T18:55:13.054Z,22.59
2022-07-26T18:58:16.043Z,22.58
2022-07-26T19:01:18.538Z,22.61
2022-07-26T19:04:21.694Z,22.61
2022-07-26T19:07:23.980Z,22.61
2022-07-26T19:10:26.060Z,22.62
2022-07-26T19:13:28.386Z,22.65
2022-07-26T19:16:30.449Z,22.63
2022-07-26T19:19:35.708Z,22.55
2022-07-26T19:22:42.324Z,22.60
2022-07-26T19:25:44.425Z,22.59
2022-07-26T19:28:49.207Z,22.57
2022-07-26T19:31:51.202Z,22.47
2022-07-26T19:34:56.572Z,22.44
2022-07-26T19:37:58.883Z,22.34
2022-07-26T19:41:01.549Z,22.38
2022-07-26T19:44:04.643Z,22.30
2022-07-26T19:47:09.092Z,22.23
2022-07-26T19:50:12.012Z,22.19
2022-07-26T19:53:14.416Z,22.14
2022-07-26T19:56:21.450Z,22.09
2022-07-26T19:59:24.725Z,22.05
2022-07-26T20:02:27.519Z,22.13
2022-07-26T20:05:30.061Z,22.09
2022-07-26T20:08:34.576Z,21.93
2022-07-26T20:11:39.469Z,21.88
2022-07-26T20:14:47.068Z,21.90
2022-07-26T20:17:57.502Z,21.79
2022-07-26T20:20:59.527Z,21.85
2022-07-26T20:24:01.948Z,21.86
2022-07-26T20:27:08.125Z,21.71
2022-07-26T20:30:11.988Z,21.67
2022-07-26T20:33:15.585Z,21.70
2022-07-26T20:36:17.810Z,21.63
2022-07-26T20:39:20.522Z,21.62
2022-07-26T20:42:22.948Z,21.56
2022-07-26T20:45:27.550Z,21.53
2022-07-26T20:48:30.153Z,21.48
2022-07-26T20:51:34.288Z,21.52
2022-07-26T20:54:36.496Z,21.36
2022-07-26T20:57:38.862Z,21.36
2022-07-26T21:00:41.364Z,21.34
2022-07-26T21:03:43.631Z,21.36
2022-07-26T21:06:46.619Z,21.29
2022-07-26T21:09:49.275Z,21.24
2022-07-26T21:12:55.753Z,21.19
2022-07-26T21:16:09.821Z,21.24
2022-07-26T21:19:13.198Z,21.17
2022-07-26T21:22:15.677Z,21.30
2022-07-26T21:25:20.419Z,21.32
2022-07-26T21:28:22.576Z,21.19
2022-07-26T21:31:27.165Z,21.14
2022-07-26T21:34:30.520Z,21.14
2022-07-26T21:37:32.832Z,21.05
2022-07-26T21:40:35.405Z,21.09
2022-07-26T21:43:40.733Z,21.09
2022-07-26T21:46:50.295Z,20.99
2022-07-26T21:49:54.087Z,21.00
2022-07-26T21:52:56.418Z,20.96
2022-07-26T21:55:58.648Z,20.97
2022-07-26T21:59:00.918Z,20.97
2022-07-26T22:02:03.643Z,20.89
2022-07-26T22:05:29.938Z,20.97
2022-07-26T22:08:32.946Z,20.86
2022-07-26T22:11:36.631Z,20.84
2022-07-26T22:14:38.834Z,20.87
2022-07-26T22:17:44.393Z,20.81
2022-07-26T22:20:49.619Z,20.82
2022-07-26T22:23:54.019Z,20.72
2022-07-26T22:27:00.323Z,20.63
2022-07-26T22:30:03.014Z,20.51
2022-07-26T22:33:10.875Z,20.58
2022-07-26T22:36:12.900Z,20.46
2022-07-26T22:39:15.592Z,20.39
2022-07-26T22:42:19.847Z,20.42
2022-07-26T22:45:22.452Z,20.38
2022-07-26T22:48:33.884Z,20.36
2022-07-26T22:51:40.102Z,20.48
2022-07-26T22:54:45.636Z,20.54
2022-07-26T22:57:50.086Z,20.54
2022-07-26T23:00:53.386Z,20.46
2022-07-26T23:03:57.715Z,20.35
2022-07-26T23:07:05.898Z,20.33
2022-07-26T23:10:12.238Z,20.12
2022-07-26T23:13:16.621Z,19.93
2022-07-26T23:16:18.864Z,19.88
2022-07-26T23:19:25.335Z,19.87
2022-07-26T23:22:29.219Z,19.79
2022-07-26T23:25:31.158Z,19.79
2022-07-26T23:28:37.073Z,19.73
2022-07-26T23:31:40.485Z,19.78
2022-07-26T23:34:43.399Z,19.87
2022-07-26T23:37:45.387Z,19.90
2022-07-26T23:40:47.481Z,19.94
2022-07-26T23:43:51.731Z,19.96
2022-07-26T23:46:55.450Z,19.91
2022-07-26T23:49:58.112Z,19.86
2022-07-26T23:53:00.077Z,19.87
2022-07-26T23:56:05.701Z,20.04
2022-07-26T23:59:09.073Z,20.05
